sensor_id;sensor_type;location;lat;lon;timestamp;pressure;altitude;pressure_sealevel;temperature;humidity
59103;BME280;43999;51.660;5.616;2022-12-18T00:01:33;102605.41;;;-5.85;100.00
59103;BME280;43999;51.660;5.616;2022-12-18T00:04:04;102592.56;;;-5.86;100.00
59103;BME280;43999;51.660;5.616;2022-12-18T00:06:33;102609.56;;;-5.87;100.00
59103;BME280;43999;51.660;5.616;2022-12-18T00:09:03;102622.28;;;-5.88;100.00
59103;BME280;43999;51.660;5.616;2022-12-18T00:11:31;102627.25;;;-5.91;100.00
59103;BME280;43999;51.660;5.616;2022-12-18T00:13:59;102620.25;;;-5.96;100.00
59103;BME280;43999;51.660;5.616;2022-12-18T00:16:28;102615.06;;;-5.99;100.00
59103;BME280;43999;51.660;5.616;2022-12-18T00:18:58;102613.22;;;-6.01;100.00
59103;BME280;43999;51.660;5.616;2022-12-18T00:21:29;102609.75;;;-6.03;100.00
59103;BME280;43999;51.660;5.616;2022-12-18T00:23:58;102604.59;;;-6.05;100.00
59103;BME280;43999;51.660;5.616;2022-12-18T00:26:31;102608.06;;;-6.03;100.00
59103;BME280;43999;51.660;5.616;2022-12-18T00:29:08;102602.09;;;-6.03;100.00
59103;BME280;43999;51.660;5.616;2022-12-18T00:31:37;102601.97;;;-6.06;100.00
59103;BME280;43999;51.660;5.616;2022-12-18T00:34:05;102601.97;;;-6.06;100.00
59103;BME280;43999;51.660;5.616;2022-12-18T00:36:34;102600.16;;;-6.09;100.00
59103;BME280;43999;51.660;5.616;2022-12-18T00:39:04;102600.06;;;-6.10;100.00
59103;BME280;43999;51.660;5.616;2022-12-18T00:41:32;102599.28;;;-6.09;100.00
59103;BME280;43999;51.660;5.616;2022-12-18T00:44:19;102597.66;;;-6.07;100.00
59103;BME280;43999;51.660;5.616;2022-12-18T00:46:47;102599.28;;;-6.09;100.00
59103;BME280;43999;51.660;5.616;2022-12-18T00:49:19;102594.03;;;-6.13;100.00
59103;BME280;43999;51.660;5.616;2022-12-18T00:51:47;102596.47;;;-6.16;100.00
59103;BME280;43999;51.660;5.616;2022-12-18T00:54:16;102606.47;;;-6.20;100.00
59103;BME280;43999;51.660;5.616;2022-12-18T00:56:44;102592.84;;;-6.21;100.00
59103;BME280;43999;51.660;5.616;2022-12-18T00:59:17;102589.34;;;-6.23;100.00
59103;BME280;43999;51.660;5.616;2022-12-18T01:01:45;102586.66;;;-6.26;100.00
59103;BME280;43999;51.660;5.616;2022-12-18T01:04:13;102595.13;;;-6.27;100.00
59103;BME280;43999;51.660;5.616;2022-12-18T01:06:44;102593.38;;;-6.28;100.00
59103;BME280;43999;51.660;5.616;2022-12-18T01:09:12;102595.00;;;-6.30;100.00
59103;BME280;43999;51.660;5.616;2022-12-18T01:11:39;102600.84;;;-6.33;100.00
59103;BME280;43999;51.660;5.616;2022-12-18T01:14:07;102605.94;;;-6.33;100.00
59103;BME280;43999;51.660;5.616;2022-12-18T01:16:37;102625.34;;;-6.36;100.00
59103;BME280;43999;51.660;5.616;2022-12-18T01:19:04;102612.44;;;-6.39;100.00
59103;BME280;43999;51.660;5.616;2022-12-18T01:21:33;102625.06;;;-6.42;100.00
59103;BME280;43999;51.660;5.616;2022-12-18T01:24:03;102625.06;;;-6.42;100.00
59103;BME280;43999;51.660;5.616;2022-12-18T01:26:31;102614.88;;;-6.42;100.00
59103;BME280;43999;51.660;5.616;2022-12-18T01:28:59;102605.47;;;-6.43;100.00
59103;BME280;43999;51.660;5.616;2022-12-18T01:31:29;102608.72;;;-6.46;100.00
59103;BME280;43999;51.660;5.616;2022-12-18T01:34:00;102612.25;;;-6.44;100.00
59103;BME280;43999;51.660;5.616;2022-12-18T01:36:32;102605.38;;;-6.45;100.00
59103;BME280;43999;51.660;5.616;2022-12-18T01:39:03;102600.22;;;-6.46;100.00
59103;BME280;43999;51.660;5.616;2022-12-18T01:41:32;102603.63;;;-6.46;100.00
59103;BME280;43999;51.660;5.616;2022-12-18T01:49:56;102584.06;;;-6.47;100.00
59103;BME280;43999;51.660;5.616;2022-12-18T01:52:28;102593.22;;;-6.51;100.00
59103;BME280;43999;51.660;5.616;2022-12-18T01:54:56;102589.03;;;-6.50;100.00
59103;BME280;43999;51.660;5.616;2022-12-18T01:57:26;102589.03;;;-6.50;100.00
59103;BME280;43999;51.660;5.616;2022-12-18T02:00:00;102591.50;;;-6.52;100.00
59103;BME280;43999;51.660;5.616;2022-12-18T02:02:40;102603.44;;;-6.51;100.00
59103;BME280;43999;51.660;5.616;2022-12-18T02:05:10;102606.72;;;-6.53;100.00
59103;BME280;43999;51.660;5.616;2022-12-18T02:08:03;102593.78;;;-6.58;100.00
59103;BME280;43999;51.660;5.616;2022-12-18T02:13:52;102599.75;;;-6.57;100.00
59103;BME280;43999;51.660;5.616;2022-12-18T02:16:44;102600.44;;;-6.61;100.00
59103;BME280;43999;51.660;5.616;2022-12-18T02:23:04;102594.97;;;-6.69;100.00
59103;BME280;43999;51.660;5.616;2022-12-18T02:26:02;102595.69;;;-6.72;100.00
59103;BME280;43999;51.660;5.616;2022-12-18T02:28:41;102598.13;;;-6.75;100.00
59103;BME280;43999;51.660;5.616;2022-12-18T02:31:13;102592.66;;;-6.82;100.00
59103;BME280;43999;51.660;5.616;2022-12-18T02:33:44;102602.13;;;-6.80;100.00
59103;BME280;43999;51.660;5.616;2022-12-18T02:36:13;102596.00;;;-6.83;100.00
59103;BME280;43999;51.660;5.616;2022-12-18T02:38:44;102592.66;;;-6.82;100.00
59103;BME280;43999;51.660;5.616;2022-12-18T02:41:15;102597.84;;;-6.81;100.00
59103;BME280;43999;51.660;5.616;2022-12-18T02:43:57;102589.25;;;-6.83;100.00
59103;BME280;43999;51.660;5.616;2022-12-18T02:59:02;102572.06;;;-6.87;100.00
59103;BME280;43999;51.660;5.616;2022-12-18T03:02:02;102557.13;;;-6.97;100.00
59103;BME280;43999;51.660;5.616;2022-12-18T03:04:55;102568.22;;;-6.97;100.00
59103;BME280;43999;51.660;5.616;2022-12-18T03:07:40;102572.44;;;-6.97;100.00
59103;BME280;43999;51.660;5.616;2022-12-18T03:10:15;102574.03;;;-6.99;100.00
59103;BME280;43999;51.660;5.616;2022-12-18T03:13:04;102573.91;;;-7.03;100.00
59103;BME280;43999;51.660;5.616;2022-12-18T03:15:39;102578.22;;;-7.01;100.00
59103;BME280;43999;51.660;5.616;2022-12-18T03:18:39;102561.75;;;-7.08;100.00
59103;BME280;43999;51.660;5.616;2022-12-18T03:21:10;102568.59;;;-7.07;100.00
59103;BME280;43999;51.660;5.616;2022-12-18T03:23:50;102568.44;;;-7.10;100.00
59103;BME280;43999;51.660;5.616;2022-12-18T03:26:25;102566.69;;;-7.11;100.00
59103;BME280;43999;51.660;5.616;2022-12-18T03:29:13;102550.97;;;-7.21;100.00
59103;BME280;43999;51.660;5.616;2022-12-18T03:32:11;102550.97;;;-7.21;100.00
59103;BME280;43999;51.660;5.616;2022-12-18T03:34:40;102563.06;;;-7.16;100.00
59103;BME280;43999;51.660;5.616;2022-12-18T03:37:12;102558.75;;;-7.17;100.00
59103;BME280;43999;51.660;5.616;2022-12-18T03:39:40;102552.75;;;-7.19;100.00
59103;BME280;43999;51.660;5.616;2022-12-18T03:45:35;102547.44;;;-7.24;100.00
59103;BME280;43999;51.660;5.616;2022-12-18T03:54:14;102535.84;;;-7.17;100.00
59103;BME280;43999;51.660;5.616;2022-12-18T03:56:59;102529.75;;;-7.21;100.00
59103;BME280;43999;51.660;5.616;2022-12-18T03:59:29;102533.91;;;-7.23;100.00
59103;BME280;43999;51.660;5.616;2022-12-18T04:01:59;102529.03;;;-7.18;100.00
59103;BME280;43999;51.660;5.616;2022-12-18T04:04:29;102527.25;;;-7.19;100.00
59103;BME280;43999;51.660;5.616;2022-12-18T04:07:02;102524.94;;;-7.15;100.00
59103;BME280;43999;51.660;5.616;2022-12-18T04:09:30;102520.41;;;-7.21;100.00
59103;BME280;43999;51.660;5.616;2022-12-18T04:11:59;102512.84;;;-7.19;100.00
59103;BME280;43999;51.660;5.616;2022-12-18T04:14:26;102518.91;;;-7.17;100.00
59103;BME280;43999;51.660;5.616;2022-12-18T04:16:56;102505.25;;;-7.17;100.00
59103;BME280;43999;51.660;5.616;2022-12-18T04:19:29;102509.50;;;-7.18;100.00
59103;BME280;43999;51.660;5.616;2022-12-18T04:21:57;102496.69;;;-7.19;100.00
59103;BME280;43999;51.660;5.616;2022-12-18T04:24:26;102495.75;;;-7.22;100.00
59103;BME280;43999;51.660;5.616;2022-12-18T04:27:04;102500.25;;;-7.16;100.00
59103;BME280;43999;51.660;5.616;2022-12-18T04:29:38;102506.31;;;-7.14;100.00
59103;BME280;43999;51.660;5.616;2022-12-18T04:32:06;102503.00;;;-7.11;100.00
59103;BME280;43999;51.660;5.616;2022-12-18T04:34:34;102498.66;;;-7.14;100.00
59103;BME280;43999;51.660;5.616;2022-12-18T04:37:02;102485.78;;;-7.17;100.00
59103;BME280;43999;51.660;5.616;2022-12-18T04:39:30;102496.03;;;-7.15;100.00
59103;BME280;43999;51.660;5.616;2022-12-18T04:42:03;102505.47;;;-7.13;100.00
59103;BME280;43999;51.660;5.616;2022-12-18T04:44:32;102512.31;;;-7.12;100.00
59103;BME280;43999;51.660;5.616;2022-12-18T04:46:59;102519.03;;;-7.14;100.00
59103;BME280;43999;51.660;5.616;2022-12-18T04:49:26;102514.22;;;-7.08;100.00
59103;BME280;43999;51.660;5.616;2022-12-18T04:51:54;102520.91;;;-7.10;100.00
59103;BME280;43999;51.660;5.616;2022-12-18T04:54:21;102518.28;;;-7.11;100.00
59103;BME280;43999;51.660;5.616;2022-12-18T04:56:50;102520.84;;;-7.11;100.00
59103;BME280;43999;51.660;5.616;2022-12-18T04:59:17;102525.13;;;-7.10;100.00
59103;BME280;43999;51.660;5.616;2022-12-18T05:01:45;102525.94;;;-7.11;100.00
59103;BME280;43999;51.660;5.616;2022-12-18T05:04:13;102531.84;;;-7.12;100.00
59103;BME280;43999;51.660;5.616;2022-12-18T05:06:40;102543.69;;;-7.13;100.00
59103;BME280;43999;51.660;5.616;2022-12-18T05:09:08;102547.00;;;-7.15;100.00
59103;BME280;43999;51.660;5.616;2022-12-18T05:11:35;102544.31;;;-7.18;100.00
59103;BME280;43999;51.660;5.616;2022-12-18T05:14:03;102553.53;;;-7.21;100.00
59103;BME280;43999;51.660;5.616;2022-12-18T05:16:31;102559.44;;;-7.22;100.00
59103;BME280;43999;51.660;5.616;2022-12-18T05:18:58;102556.91;;;-7.22;100.00
59103;BME280;43999;51.660;5.616;2022-12-18T05:21:26;102551.81;;;-7.22;100.00
59103;BME280;43999;51.660;5.616;2022-12-18T05:23:53;102555.34;;;-7.18;100.00
59103;BME280;43999;51.660;5.616;2022-12-18T05:26:21;102550.25;;;-7.18;100.00
59103;BME280;43999;51.660;5.616;2022-12-18T05:28:48;102559.53;;;-7.20;100.00
59103;BME280;43999;51.660;5.616;2022-12-18T05:31:16;102554.28;;;-7.23;100.00
59103;BME280;43999;51.660;5.616;2022-12-18T05:33:43;102546.50;;;-7.26;100.00
59103;BME280;43999;51.660;5.616;2022-12-18T05:36:11;102539.50;;;-7.30;100.00
59103;BME280;43999;51.660;5.616;2022-12-18T05:38:39;102538.63;;;-7.31;100.00
59103;BME280;43999;51.660;5.616;2022-12-18T05:41:07;102537.59;;;-7.34;100.00
59103;BME280;43999;51.660;5.616;2022-12-18T05:43:38;102540.06;;;-7.36;100.00
59103;BME280;43999;51.660;5.616;2022-12-18T05:46:09;102536.66;;;-7.36;100.00
59103;BME280;43999;51.660;5.616;2022-12-18T05:48:38;102532.34;;;-7.38;100.00
59103;BME280;43999;51.660;5.616;2022-12-18T05:51:15;102528.94;;;-7.38;100.00
59103;BME280;43999;51.660;5.616;2022-12-18T05:53:43;102522.25;;;-7.36;100.00
59103;BME280;43999;51.660;5.616;2022-12-18T05:56:17;102526.47;;;-7.36;100.00
59103;BME280;43999;51.660;5.616;2022-12-18T05:58:46;102528.22;;;-7.35;100.00
59103;BME280;43999;51.660;5.616;2022-12-18T06:01:25;102517.06;;;-7.38;100.00
59103;BME280;43999;51.660;5.616;2022-12-18T06:03:54;102513.75;;;-7.36;100.00
59103;BME280;43999;51.660;5.616;2022-12-18T06:06:27;102507.84;;;-7.35;100.00
59103;BME280;43999;51.660;5.616;2022-12-18T06:08:56;102501.88;;;-7.36;100.00
59103;BME280;43999;51.660;5.616;2022-12-18T06:11:25;102504.41;;;-7.36;100.00
59103;BME280;43999;51.660;5.616;2022-12-18T06:13:55;102499.31;;;-7.36;100.00
59103;BME280;43999;51.660;5.616;2022-12-18T06:16:27;102492.56;;;-7.35;100.00
59103;BME280;43999;51.660;5.616;2022-12-18T06:19:03;102492.66;;;-7.34;100.00
59103;BME280;43999;51.660;5.616;2022-12-18T06:21:32;102485.94;;;-7.32;100.00
59103;BME280;43999;51.660;5.616;2022-12-18T06:24:00;102500.63;;;-7.26;100.00
59103;BME280;43999;51.660;5.616;2022-12-18T06:26:27;102491.38;;;-7.24;100.00
59103;BME280;43999;51.660;5.616;2022-12-18T06:28:55;102498.31;;;-7.22;100.00
59103;BME280;43999;51.660;5.616;2022-12-18T06:31:22;102504.25;;;-7.21;100.00
59103;BME280;43999;51.660;5.616;2022-12-18T06:33:50;102495.00;;;-7.19;100.00
59103;BME280;43999;51.660;5.616;2022-12-18T06:36:17;102492.47;;;-7.19;100.00
59103;BME280;43999;51.660;5.616;2022-12-18T06:38:45;102497.84;;;-7.13;100.00
59103;BME280;43999;51.660;5.616;2022-12-18T06:41:19;102501.00;;;-7.18;100.00
59103;BME280;43999;51.660;5.616;2022-12-18T06:43:47;102499.44;;;-7.15;100.00
59103;BME280;43999;51.660;5.616;2022-12-18T06:46:15;102499.38;;;-7.16;100.00
59103;BME280;43999;51.660;5.616;2022-12-18T06:48:42;102495.06;;;-7.17;100.00
59103;BME280;43999;51.660;5.616;2022-12-18T06:51:10;102488.97;;;-7.21;100.00
59103;BME280;43999;51.660;5.616;2022-12-18T06:53:38;102481.41;;;-7.19;100.00
59103;BME280;43999;51.660;5.616;2022-12-18T06:56:07;102492.53;;;-7.17;100.00
59103;BME280;43999;51.660;5.616;2022-12-18T06:58:38;102488.41;;;-7.15;100.00
59103;BME280;43999;51.660;5.616;2022-12-18T07:01:09;102484.31;;;-7.12;100.00
59103;BME280;43999;51.660;5.616;2022-12-18T07:03:39;102470.00;;;-7.08;100.00
59103;BME280;43999;51.660;5.616;2022-12-18T07:06:18;102469.50;;;-7.01;100.00
59103;BME280;43999;51.660;5.616;2022-12-18T07:08:46;102465.25;;;-7.00;100.00
59103;BME280;43999;51.660;5.616;2022-12-18T07:11:15;102471.97;;;-7.03;100.00
59103;BME280;43999;51.660;5.616;2022-12-18T07:13:43;102466.94;;;-7.01;100.00
59103;BME280;43999;51.660;5.616;2022-12-18T07:16:18;102464.53;;;-6.98;100.00
59103;BME280;43999;51.660;5.616;2022-12-18T07:18:54;102472.19;;;-6.98;100.00
59103;BME280;43999;51.660;5.616;2022-12-18T07:21:23;102451.88;;;-6.96;100.00
59103;BME280;43999;51.660;5.616;2022-12-18T07:23:51;102449.50;;;-6.92;100.00
59103;BME280;43999;51.660;5.616;2022-12-18T07:26:20;102447.81;;;-6.91;100.00
59103;BME280;43999;51.660;5.616;2022-12-18T07:28:48;102442.94;;;-6.87;100.00
59103;BME280;43999;51.660;5.616;2022-12-18T07:31:20;102446.44;;;-6.85;100.00
59103;BME280;43999;51.660;5.616;2022-12-18T07:33:49;102439.78;;;-6.81;100.00
59103;BME280;43999;51.660;5.616;2022-12-18T07:36:18;102452.59;;;-6.79;100.00
59103;BME280;43999;51.660;5.616;2022-12-18T07:38:47;102434.88;;;-6.76;100.00
59103;BME280;43999;51.660;5.616;2022-12-18T07:41:15;102441.03;;;-6.71;100.00
59103;BME280;43999;51.660;5.616;2022-12-18T07:43:43;102430.97;;;-6.68;100.00
59103;BME280;43999;51.660;5.616;2022-12-18T07:46:11;102425.81;;;-6.70;100.00
59103;BME280;43999;51.660;5.616;2022-12-18T07:48:44;102415.69;;;-6.68;100.00
59103;BME280;43999;51.660;5.616;2022-12-18T07:51:17;102411.81;;;-6.60;100.00
59103;BME280;43999;51.660;5.616;2022-12-18T07:53:45;102410.25;;;-6.56;100.00
59103;BME280;43999;51.660;5.616;2022-12-18T07:56:19;102416.25;;;-6.54;100.00
59103;BME280;43999;51.660;5.616;2022-12-18T07:58:57;102401.16;;;-6.50;100.00
59103;BME280;43999;51.660;5.616;2022-12-18T08:01:25;102398.78;;;-6.45;100.00
59103;BME280;43999;51.660;5.616;2022-12-18T08:03:52;102386.22;;;-6.40;100.00
59103;BME280;43999;51.660;5.616;2022-12-18T08:06:20;102383.81;;;-6.37;100.00
59103;BME280;43999;51.660;5.616;2022-12-18T08:08:55;102386.72;;;-6.28;100.00
59103;BME280;43999;51.660;5.616;2022-12-18T08:11:25;102391.88;;;-6.26;100.00
59103;BME280;43999;51.660;5.616;2022-12-18T08:13:53;102388.78;;;-6.19;100.00
59103;BME280;43999;51.660;5.616;2022-12-18T08:16:23;102395.78;;;-6.14;100.00
59103;BME280;43999;51.660;5.616;2022-12-18T08:18:53;102399.53;;;-6.05;100.00
59103;BME280;43999;51.660;5.616;2022-12-18T08:21:27;102406.50;;;-6.01;100.00
59103;BME280;43999;51.660;5.616;2022-12-18T08:23:59;102391.22;;;-6.00;100.00
59103;BME280;43999;51.660;5.616;2022-12-18T08:26:30;102396.47;;;-5.97;100.00
59103;BME280;43999;51.660;5.616;2022-12-18T08:28:59;102410.19;;;-5.93;100.00
59103;BME280;43999;51.660;5.616;2022-12-18T08:31:28;102409.44;;;-5.90;100.00
59103;BME280;43999;51.660;5.616;2022-12-18T08:33:57;102399.34;;;-5.87;100.00
59103;BME280;43999;51.660;5.616;2022-12-18T08:36:25;102402.50;;;-5.72;100.00
59103;BME280;43999;51.660;5.616;2022-12-18T08:38:53;102393.41;;;-5.65;100.00
59103;BME280;43999;51.660;5.616;2022-12-18T08:41:21;102405.38;;;-5.63;100.00
59103;BME280;43999;51.660;5.616;2022-12-18T08:43:49;102419.91;;;-5.62;100.00
59103;BME280;43999;51.660;5.616;2022-12-18T08:46:40;102415.78;;;-5.58;100.00
59103;BME280;43999;51.660;5.616;2022-12-18T08:49:10;102401.75;;;-5.47;100.00
59103;BME280;43999;51.660;5.616;2022-12-18T08:51:38;102392.69;;;-5.38;100.00
59103;BME280;43999;51.660;5.616;2022-12-18T08:54:06;102376.88;;;-5.28;100.00
59103;BME280;43999;51.660;5.616;2022-12-18T08:56:34;102378.53;;;-5.29;100.00
59103;BME280;43999;51.660;5.616;2022-12-18T08:59:02;102387.22;;;-5.24;100.00
59103;BME280;43999;51.660;5.616;2022-12-18T09:01:31;102383.81;;;-5.24;100.00
59103;BME280;43999;51.660;5.616;2022-12-18T09:03:59;102379.63;;;-5.22;100.00
59103;BME280;43999;51.660;5.616;2022-12-18T09:06:27;102379.09;;;-5.13;100.00
59103;BME280;43999;51.660;5.616;2022-12-18T09:08:54;102382.66;;;-5.08;100.00
59103;BME280;43999;51.660;5.616;2022-12-18T09:11:22;102377.66;;;-5.05;100.00
59103;BME280;43999;51.660;5.616;2022-12-18T09:13:51;102386.38;;;-5.00;100.00
59103;BME280;43999;51.660;5.616;2022-12-18T09:16:19;102380.75;;;-4.90;100.00
59103;BME280;43999;51.660;5.616;2022-12-18T09:18:47;102386.88;;;-4.86;100.00
59103;BME280;43999;51.660;5.616;2022-12-18T09:21:20;102381.13;;;-4.79;100.00
59103;BME280;43999;51.660;5.616;2022-12-18T09:23:52;102384.75;;;-4.74;100.00
59103;BME280;43999;51.660;5.616;2022-12-18T09:26:24;102403.66;;;-4.69;100.00
59103;BME280;43999;51.660;5.616;2022-12-18T09:28:52;102398.81;;;-4.61;100.00
59103;BME280;43999;51.660;5.616;2022-12-18T09:31:21;102405.88;;;-4.54;100.00
59103;BME280;43999;51.660;5.616;2022-12-18T09:33:49;102405.13;;;-4.50;100.00
59103;BME280;43999;51.660;5.616;2022-12-18T09:36:17;102404.34;;;-4.48;100.00
59103;BME280;43999;51.660;5.616;2022-12-18T09:38:45;102397.63;;;-4.45;100.00
59103;BME280;43999;51.660;5.616;2022-12-18T09:41:51;102400.38;;;-4.39;100.00
59103;BME280;43999;51.660;5.616;2022-12-18T09:44:27;102392.19;;;-4.28;100.00
59103;BME280;43999;51.660;5.616;2022-12-18T09:47:20;102383.09;;;-4.19;100.00
59103;BME280;43999;51.660;5.616;2022-12-18T09:49:55;102387.75;;;-4.07;100.00
59103;BME280;43999;51.660;5.616;2022-12-18T09:52:37;102374.19;;;-4.04;100.00
59103;BME280;43999;51.660;5.616;2022-12-18T09:55:38;102364.09;;;-4.00;100.00
59103;BME280;43999;51.660;5.616;2022-12-18T09:58:34;102354.84;;;-3.94;100.00
59103;BME280;43999;51.660;5.616;2022-12-18T10:01:15;102346.47;;;-3.89;100.00
59103;BME280;43999;51.660;5.616;2022-12-18T10:03:45;102342.31;;;-3.85;100.00
59103;BME280;43999;51.660;5.616;2022-12-18T10:09:41;102352.22;;;-3.67;100.00
59103;BME280;43999;51.660;5.616;2022-12-18T10:12:51;102360.16;;;-3.58;100.00
59103;BME280;43999;51.660;5.616;2022-12-18T10:21:20;102349.84;;;-3.31;100.00
59103;BME280;43999;51.660;5.616;2022-12-18T10:24:39;102358.34;;;-3.32;100.00
59103;BME280;43999;51.660;5.616;2022-12-18T10:27:16;102342.25;;;-3.28;100.00
59103;BME280;43999;51.660;5.616;2022-12-18T10:29:44;102345.88;;;-3.19;100.00
59103;BME280;43999;51.660;5.616;2022-12-18T10:32:22;102336.72;;;-3.11;100.00
59103;BME280;43999;51.660;5.616;2022-12-18T10:34:51;102328.16;;;-3.10;100.00
59103;BME280;43999;51.660;5.616;2022-12-18T10:37:29;102340.28;;;-3.04;100.00
59103;BME280;43999;51.660;5.616;2022-12-18T10:40:15;102331.72;;;-3.07;100.00
59103;BME280;43999;51.660;5.616;2022-12-18T10:43:12;102321.72;;;-2.96;100.00
59103;BME280;43999;51.660;5.616;2022-12-18T10:45:40;102315.00;;;-2.91;100.00
59103;BME280;43999;51.660;5.616;2022-12-18T10:48:22;102309.28;;;-2.80;100.00
59103;BME280;43999;51.660;5.616;2022-12-18T10:50:51;102299.09;;;-2.77;100.00
59103;BME280;43999;51.660;5.616;2022-12-18T10:53:41;102286.66;;;-2.60;100.00
59103;BME280;43999;51.660;5.616;2022-12-18T10:56:10;102284.19;;;-2.56;100.00
59103;BME280;43999;51.660;5.616;2022-12-18T10:58:38;102285.09;;;-2.55;100.00
59103;BME280;43999;51.660;5.616;2022-12-18T11:01:16;102280.03;;;-2.52;100.00
59103;BME280;43999;51.660;5.616;2022-12-18T11:04:01;102271.69;;;-2.42;100.00
59103;BME280;43999;51.660;5.616;2022-12-18T11:06:30;102281.06;;;-2.44;100.00
59103;BME280;43999;51.660;5.616;2022-12-18T11:09:03;102268.53;;;-2.30;100.00
59103;BME280;43999;51.660;5.616;2022-12-18T11:11:40;102278.03;;;-2.27;100.00
59103;BME280;43999;51.660;5.616;2022-12-18T11:14:18;102265.16;;;-2.29;100.00
59103;BME280;43999;51.660;5.616;2022-12-18T11:16:49;102270.31;;;-2.27;100.00
59103;BME280;43999;51.660;5.616;2022-12-18T11:19:39;102273.56;;;-2.35;100.00
59103;BME280;43999;51.660;5.616;2022-12-18T11:28:00;102259.19;;;-2.26;100.00
59103;BME280;43999;51.660;5.616;2022-12-18T11:30:31;102250.81;;;-2.19;100.00
59103;BME280;43999;51.660;5.616;2022-12-18T11:33:09;102251.84;;;-2.09;100.00
59103;BME280;43999;51.660;5.616;2022-12-18T11:36:00;102251.09;;;-2.05;100.00
59103;BME280;43999;51.660;5.616;2022-12-18T11:38:37;102256.19;;;-2.07;100.00
59103;BME280;43999;51.660;5.616;2022-12-18T11:41:23;102247.56;;;-2.10;100.00
59103;BME280;43999;51.660;5.616;2022-12-18T11:44:21;102253.72;;;-2.02;100.00
59103;BME280;43999;51.660;5.616;2022-12-18T11:46:58;102244.44;;;-1.95;100.00
59103;BME280;43999;51.660;5.616;2022-12-18T11:49:32;102253.88;;;-1.94;100.00
59103;BME280;43999;51.660;5.616;2022-12-18T11:52:22;102240.25;;;-1.92;100.00
59103;BME280;43999;51.660;5.616;2022-12-18T11:55:00;102232.63;;;-1.87;100.00
59103;BME280;43999;51.660;5.616;2022-12-18T11:57:55;102234.34;;;-1.86;100.00
59103;BME280;43999;51.660;5.616;2022-12-18T12:00:28;102236.22;;;-1.79;100.00
59103;BME280;43999;51.660;5.616;2022-12-18T12:03:16;102237.03;;;-1.80;100.00
59103;BME280;43999;51.660;5.616;2022-12-18T12:06:12;102223.44;;;-1.74;100.00
59103;BME280;43999;51.660;5.616;2022-12-18T12:20:46;102203.19;;;-1.59;100.00
59103;BME280;43999;51.660;5.616;2022-12-18T12:30:00;102194.59;;;-1.61;100.00
59103;BME280;43999;51.660;5.616;2022-12-18T12:33:01;102189.69;;;-1.47;100.00
59103;BME280;43999;51.660;5.616;2022-12-18T12:35:54;102187.13;;;-1.47;100.00
59103;BME280;43999;51.660;5.616;2022-12-18T12:38:43;102181.94;;;-1.50;100.00
59103;BME280;43999;51.660;5.616;2022-12-18T12:41:23;102169.88;;;-1.53;100.00
59103;BME280;43999;51.660;5.616;2022-12-18T12:44:20;102177.59;;;-1.53;100.00
59103;BME280;43999;51.660;5.616;2022-12-18T12:46:54;102171.75;;;-1.44;100.00
59103;BME280;43999;51.660;5.616;2022-12-18T12:49:27;102168.34;;;-1.41;100.00
59103;BME280;43999;51.660;5.616;2022-12-18T12:52:45;102159.78;;;-1.42;100.00
59103;BME280;43999;51.660;5.616;2022-12-18T12:55:23;102141.94;;;-1.33;100.00
59103;BME280;43999;51.660;5.616;2022-12-18T13:00:40;102132.44;;;-1.35;100.00
59103;BME280;43999;51.660;5.616;2022-12-18T13:06:00;102131.66;;;-1.31;100.00
59103;BME280;43999;51.660;5.616;2022-12-18T13:08:51;102122.28;;;-1.28;100.00
59103;BME280;43999;51.660;5.616;2022-12-18T13:11:42;102123.25;;;-1.21;100.00
59103;BME280;43999;51.660;5.616;2022-12-18T13:14:35;102120.84;;;-1.09;100.00
59103;BME280;43999;51.660;5.616;2022-12-18T13:22:46;102111.25;;;-1.20;100.00
59103;BME280;43999;51.660;5.616;2022-12-18T13:25:35;102120.72;;;-1.18;100.00
59103;BME280;43999;51.660;5.616;2022-12-18T13:28:14;102107.84;;;-1.18;100.00
59103;BME280;43999;51.660;5.616;2022-12-18T13:30:51;102107.84;;;-1.19;100.00
59103;BME280;43999;51.660;5.616;2022-12-18T13:35:52;102102.81;;;-1.10;100.00
59103;BME280;43999;51.660;5.616;2022-12-18T13:38:39;102109.75;;;-1.06;100.00
59103;BME280;43999;51.660;5.616;2022-12-18T13:41:26;102096.00;;;-1.08;100.00
59103;BME280;43999;51.660;5.616;2022-12-18T13:43:55;102103.69;;;-1.11;100.00
59103;BME280;43999;51.660;5.616;2022-12-18T13:46:45;102102.81;;;-1.12;100.00
59103;BME280;43999;51.660;5.616;2022-12-18T13:51:49;102098.53;;;-1.11;100.00
59103;BME280;43999;51.660;5.616;2022-12-18T13:54:40;102092.50;;;-1.12;100.00
59103;BME280;43999;51.660;5.616;2022-12-18T13:59:59;102080.59;;;-1.06;100.00
59103;BME280;43999;51.660;5.616;2022-12-18T14:02:39;102075.47;;;-1.06;100.00
59103;BME280;43999;51.660;5.616;2022-12-18T14:05:41;102079.72;;;-1.07;100.00
59103;BME280;43999;51.660;5.616;2022-12-18T14:08:14;102077.09;;;-1.10;100.00
59103;BME280;43999;51.660;5.616;2022-12-18T14:10:44;102083.13;;;-1.10;100.00
59103;BME280;43999;51.660;5.616;2022-12-18T14:13:30;102072.03;;;-1.04;100.00
59103;BME280;43999;51.660;5.616;2022-12-18T14:16:01;102068.59;;;-1.06;100.00
59103;BME280;43999;51.660;5.616;2022-12-18T14:18:48;102065.16;;;-1.06;100.00
59103;BME280;43999;51.660;5.616;2022-12-18T14:21:29;102077.97;;;-1.10;100.00
59103;BME280;43999;51.660;5.616;2022-12-18T14:24:15;102072.78;;;-1.13;100.00
59103;BME280;43999;51.660;5.616;2022-12-18T14:26:47;102059.06;;;-1.12;100.00
59103;BME280;43999;51.660;5.616;2022-12-18T14:29:27;102070.41;;;-1.00;100.00
59103;BME280;43999;51.660;5.616;2022-12-18T14:32:14;102070.34;;;-1.05;100.00
59103;BME280;43999;51.660;5.616;2022-12-18T14:34:52;102072.78;;;-1.13;100.00
59103;BME280;43999;51.660;5.616;2022-12-18T14:37:26;102077.06;;;-1.13;100.00
59103;BME280;43999;51.660;5.616;2022-12-18T14:40:05;102074.63;;;-1.04;100.00
59103;BME280;43999;51.660;5.616;2022-12-18T14:42:37;102077.97;;;-1.10;100.00
59103;BME280;43999;51.660;5.616;2022-12-18T14:45:33;102062.56;;;-1.10;100.00